createdAt,value
2022-10-19T00:01:20.792Z,1.12
2022-10-19T00:03:51.411Z,0.98
2022-10-19T00:06:26.690Z,0.70
2022-10-19T00:08:57.570Z,0.90
2022-10-19T00:11:26.130Z,1.15
2022-10-19T00:13:55.528Z,0.65
2022-10-19T00:16:24.762Z,1.10
2022-10-19T00:18:52.618Z,0.47
2022-10-19T00:21:21.181Z,1.17
2022-10-19T00:23:49.354Z,0.80
2022-10-19T00:26:17.301Z,1.20
2022-10-19T00:28:46.101Z,0.80
2022-10-19T00:31:16.565Z,0.75
2022-10-19T00:33:48.626Z,1.12
2022-10-19T00:36:18.622Z,0.75
2022-10-19T00:38:46.830Z,1.12
2022-10-19T00:41:15.619Z,2.65
2022-10-19T00:44:05.238Z,1.27
2022-10-19T00:46:36.632Z,0.70
2022-10-19T00:49:11.789Z,1.20
2022-10-19T00:51:45.780Z,1.37
2022-10-19T00:54:14.528Z,1.75
2022-10-19T00:56:43.628Z,1.73
2022-10-19T00:59:14.019Z,0.77
2022-10-19T01:01:44.817Z,1.42
2022-10-19T01:04:13.139Z,0.95
2022-10-19T01:06:42.065Z,2.05
2022-10-19T01:09:10.347Z,0.90
2022-10-19T01:11:55.831Z,0.93
2022-10-19T01:14:59.465Z,1.12
2022-10-19T01:17:53.348Z,0.90
2022-10-19T01:20:48.778Z,0.80
2022-10-19T01:23:35.139Z,1.00
2022-10-19T01:26:03.267Z,0.77
2022-10-19T01:28:37.072Z,0.98
2022-10-19T01:31:14.917Z,0.60
2022-10-19T01:34:10.106Z,1.12
2022-10-19T01:36:50.730Z,1.02
2022-10-19T01:39:49.986Z,0.70
2022-10-19T01:42:22.667Z,1.92
2022-10-19T01:44:52.535Z,1.83
2022-10-19T01:47:27.269Z,0.40
2022-10-19T01:49:59.167Z,0.40
2022-10-19T01:52:27.828Z,0.65
2022-10-19T01:54:58.157Z,0.47
2022-10-19T01:57:38.007Z,1.33
2022-10-19T02:00:08.308Z,2.65
2022-10-19T02:02:43.411Z,0.70
2022-10-19T02:05:12.519Z,1.30
2022-10-19T02:07:42.179Z,0.68
2022-10-19T02:10:10.301Z,1.27
2022-10-19T02:12:38.681Z,0.90
2022-10-19T02:15:10.840Z,1.77
2022-10-19T02:17:44.509Z,0.68
2022-10-19T02:20:13.108Z,1.15
2022-10-19T02:22:41.321Z,1.33
2022-10-19T02:25:09.679Z,1.23
2022-10-19T02:27:39.901Z,1.80
2022-10-19T02:30:19.059Z,1.50
2022-10-19T02:32:47.030Z,1.65
2022-10-19T02:35:15.798Z,1.20
2022-10-19T02:37:43.723Z,1.92
2022-10-19T02:40:12.489Z,1.10
2022-10-19T02:42:56.721Z,1.52
2022-10-19T02:45:28.818Z,0.75
2022-10-19T02:48:09.219Z,1.10
2022-10-19T02:50:37.310Z,1.45
2022-10-19T02:53:05.590Z,2.17
2022-10-19T02:55:33.511Z,1.98
2022-10-19T02:58:01.430Z,3.20
2022-10-19T03:00:29.910Z,1.55
2022-10-19T03:02:57.809Z,2.35
2022-10-19T03:05:25.748Z,1.37
2022-10-19T03:07:53.887Z,1.45
2022-10-19T03:10:21.778Z,1.12
2022-10-19T03:12:49.698Z,1.15
2022-10-19T03:15:19.159Z,1.87
2022-10-19T03:17:47.020Z,1.50
2022-10-19T03:20:15.109Z,2.45
2022-10-19T03:22:43.438Z,0.98
2022-10-19T03:25:11.358Z,1.67
2022-10-19T03:27:39.177Z,1.62
2022-10-19T03:30:08.001Z,2.15
2022-10-19T03:32:35.850Z,1.95
2022-10-19T03:35:03.960Z,1.73
2022-10-19T03:37:32.428Z,1.70
2022-10-19T03:40:00.585Z,1.33
2022-10-19T03:42:28.450Z,1.27
2022-10-19T03:44:56.656Z,2.12
2022-10-19T03:47:24.828Z,1.42
2022-10-19T03:49:52.730Z,2.17
2022-10-19T03:52:20.970Z,1.25
2022-10-19T03:54:52.137Z,2.10
2022-10-19T03:57:20.429Z,2.10
2022-10-19T03:59:48.989Z,1.10
2022-10-19T04:02:16.830Z,1.42
2022-10-19T04:04:45.033Z,1.37
2022-10-19T04:07:12.829Z,2.42
2022-10-19T04:09:40.738Z,1.80
2022-10-19T04:12:08.851Z,2.05
2022-10-19T04:14:45.800Z,2.12
2022-10-19T04:17:24.829Z,2.37
2022-10-19T04:19:52.598Z,2.12
2022-10-19T04:22:20.420Z,1.30
2022-10-19T04:24:48.563Z,1.67
2022-10-19T04:27:16.481Z,2.58
2022-10-19T04:29:44.359Z,3.08
2022-10-19T04:32:12.559Z,2.42
2022-10-19T04:34:40.581Z,1.60
2022-10-19T04:37:08.578Z,1.83
2022-10-19T04:39:39.797Z,1.83
2022-10-19T04:42:07.698Z,3.35
2022-10-19T04:44:35.468Z,2.42
2022-10-19T04:47:03.799Z,1.37
2022-10-19T04:49:31.665Z,1.87
2022-10-19T04:51:59.492Z,1.48
2022-10-19T04:54:27.730Z,1.90
2022-10-19T04:56:55.692Z,1.00
2022-10-19T04:59:23.690Z,1.35
2022-10-19T05:01:51.808Z,3.03
2022-10-19T05:04:19.632Z,2.30
2022-10-19T05:06:47.508Z,1.77
2022-10-19T05:09:15.650Z,2.72
2022-10-19T05:11:43.534Z,0.62
2022-10-19T05:14:11.391Z,1.10
2022-10-19T05:16:39.727Z,2.20
2022-10-19T05:19:07.692Z,1.85
2022-10-19T05:21:35.490Z,0.62
2022-10-19T05:24:04.151Z,1.90
2022-10-19T05:26:32.070Z,0.85
2022-10-19T05:29:04.739Z,2.15
2022-10-19T05:31:34.039Z,2.42
2022-10-19T05:34:04.225Z,1.92
2022-10-19T05:36:37.558Z,3.22
2022-10-19T05:39:08.482Z,2.35
2022-10-19T05:41:36.331Z,2.80
2022-10-19T05:44:05.823Z,1.25
2022-10-19T05:46:34.750Z,2.33
2022-10-19T05:49:02.745Z,1.48
2022-10-19T05:51:30.895Z,1.42
2022-10-19T05:53:59.779Z,2.95
2022-10-19T05:56:29.698Z,1.85
2022-10-19T05:59:00.086Z,2.20
2022-10-19T06:01:29.770Z,2.87
2022-10-19T06:03:59.213Z,1.77
2022-10-19T06:06:27.981Z,2.97
2022-10-19T06:08:57.381Z,1.25
2022-10-19T06:11:28.100Z,4.20
2022-10-19T06:13:57.850Z,1.85
2022-10-19T06:16:27.304Z,3.10
2022-10-19T06:18:55.712Z,2.33
2022-10-19T06:21:25.850Z,2.45
2022-10-19T06:24:04.931Z,2.28
2022-10-19T06:26:34.721Z,1.90
2022-10-19T06:29:03.820Z,1.27
2022-10-19T06:31:34.127Z,2.92
2022-10-19T06:34:02.764Z,2.65
2022-10-19T06:36:32.361Z,2.58
2022-10-19T06:39:01.931Z,0.68
2022-10-19T06:41:31.571Z,1.80
2022-10-19T06:44:02.110Z,0.98
2022-10-19T06:46:30.444Z,1.90
2022-10-19T06:49:00.670Z,2.30
2022-10-19T06:51:30.123Z,0.95
2022-10-19T06:53:58.500Z,2.28
2022-10-19T06:56:26.850Z,2.15
2022-10-19T06:58:55.538Z,1.00
2022-10-19T07:01:24.510Z,3.20
2022-10-19T07:03:53.332Z,1.85
2022-10-19T07:06:21.813Z,1.00
2022-10-19T07:08:50.161Z,1.50
2022-10-19T07:11:20.942Z,0.95
2022-10-19T07:13:49.297Z,2.00
2022-10-19T07:16:21.182Z,1.42
2022-10-19T07:18:52.115Z,1.37
2022-10-19T07:21:21.920Z,1.35
2022-10-19T07:23:50.742Z,1.65
2022-10-19T07:26:21.577Z,2.17
2022-10-19T07:28:50.540Z,0.60
2022-10-19T07:31:21.565Z,1.70
2022-10-19T07:34:08.190Z,2.33
2022-10-19T07:36:37.308Z,2.17
2022-10-19T07:39:07.037Z,1.83
2022-10-19T07:41:35.259Z,2.08
2022-10-19T07:44:03.816Z,2.95
2022-10-19T07:46:37.439Z,1.17
2022-10-19T07:49:11.698Z,1.17
2022-10-19T07:51:40.689Z,1.42
2022-10-19T07:54:09.274Z,1.65
2022-10-19T07:56:37.241Z,0.75
2022-10-19T07:59:06.114Z,1.15
2022-10-19T08:01:41.252Z,1.00
2022-10-19T08:06:57.789Z,0.80
2022-10-19T08:09:52.918Z,1.42
2022-10-19T08:12:15.624Z,1.27
2022-10-19T08:14:44.139Z,1.48
2022-10-19T08:17:16.864Z,0.75
2022-10-19T08:19:46.497Z,1.40
2022-10-19T08:22:14.499Z,0.70
2022-10-19T08:24:42.552Z,0.70
2022-10-19T08:27:10.916Z,1.20
2022-10-19T08:29:38.810Z,1.17
2022-10-19T08:32:06.798Z,0.68
2022-10-19T08:34:35.280Z,0.50
2022-10-19T08:37:10.294Z,0.55
2022-10-19T08:39:48.445Z,1.12
2022-10-19T08:42:23.707Z,1.33
2022-10-19T08:45:24.071Z,0.40
2022-10-19T08:48:03.681Z,0.43
2022-10-19T08:50:41.478Z,0.50
2022-10-19T08:53:20.469Z,0.55
2022-10-19T08:55:50.853Z,0.57
2022-10-19T08:58:52.751Z,1.20
2022-10-19T09:01:33.892Z,0.50
2022-10-19T09:04:17.033Z,0.43
2022-10-19T09:06:52.017Z,1.02
2022-10-19T09:09:21.186Z,0.73
2022-10-19T09:11:52.106Z,0.65
2022-10-19T09:14:28.299Z,0.40
2022-10-19T09:17:00.703Z,0.40
2022-10-19T09:19:31.171Z,0.30
2022-10-19T09:22:16.606Z,0.37
2022-10-19T09:24:51.169Z,0.57
2022-10-19T09:27:33.344Z,0.20
2022-10-19T09:30:04.259Z,0.30
2022-10-19T09:32:38.778Z,0.88
2022-10-19T09:35:23.644Z,0.70
2022-10-19T09:37:52.436Z,0.30
2022-10-19T09:40:27.980Z,0.35
2022-10-19T09:42:58.310Z,0.52
2022-10-19T09:45:32.150Z,1.27
2022-10-19T09:48:07.090Z,0.40
2022-10-19T09:50:43.540Z,0.22
2022-10-19T09:53:21.760Z,0.55
2022-10-19T09:56:00.871Z,0.35
2022-10-19T09:58:33.069Z,0.30
2022-10-19T10:01:02.673Z,0.37
2022-10-19T10:03:43.707Z,0.30
2022-10-19T10:06:16.438Z,0.77
2022-10-19T10:08:47.931Z,0.25
2022-10-19T10:11:24.159Z,0.40
2022-10-19T10:13:54.062Z,0.35
2022-10-19T10:16:24.579Z,0.47
2022-10-19T10:18:56.750Z,0.15
2022-10-19T10:21:27.372Z,0.30
2022-10-19T10:24:11.934Z,0.40
2022-10-19T10:26:46.217Z,0.47
2022-10-19T10:29:34.911Z,0.30
2022-10-19T10:32:19.102Z,0.80
2022-10-19T10:34:59.883Z,0.55
2022-10-19T10:37:37.296Z,0.85
2022-10-19T10:40:07.501Z,0.15
2022-10-19T10:42:42.228Z,0.13
2022-10-19T10:45:23.632Z,0.52
2022-10-19T10:47:52.469Z,0.55
2022-10-19T10:50:23.587Z,0.32
2022-10-19T10:53:00.523Z,0.20
2022-10-19T10:55:30.209Z,0.60
2022-10-19T10:58:25.510Z,0.80
2022-10-19T11:00:56.660Z,0.30
2022-10-19T11:03:29.127Z,0.40
2022-10-19T11:06:03.014Z,0.28
2022-10-19T11:08:50.673Z,0.62
2022-10-19T11:11:26.475Z,0.20
2022-10-19T11:14:00.310Z,0.30
2022-10-19T11:16:55.720Z,0.25
2022-10-19T11:19:32.571Z,0.32
2022-10-19T11:22:24.860Z,0.17
2022-10-19T11:25:18.742Z,0.35
2022-10-19T11:27:46.940Z,0.47
2022-10-19T11:30:20.999Z,0.30
2022-10-19T11:33:05.895Z,0.43
2022-10-19T11:35:40.320Z,0.30
2022-10-19T11:38:49.689Z,0.20
2022-10-19T11:41:27.094Z,0.20
2022-10-19T11:44:07.652Z,0.30
2022-10-19T11:47:04.870Z,0.37
2022-10-19T11:49:51.990Z,0.20
2022-10-19T11:52:57.148Z,0.40
2022-10-19T11:55:47.242Z,0.30
2022-10-19T11:58:42.841Z,0.37
2022-10-19T12:01:33.007Z,0.55
2022-10-19T12:04:21.999Z,0.20
2022-10-19T12:07:12.158Z,0.55
2022-10-19T12:10:18.313Z,0.30
2022-10-19T12:12:51.469Z,0.20
2022-10-19T12:15:41.450Z,1.50
2022-10-19T12:18:32.630Z,0.73
2022-10-19T12:21:03.771Z,0.45
2022-10-19T12:23:37.900Z,0.20
2022-10-19T12:26:08.482Z,0.30
2022-10-19T12:28:39.611Z,0.35
2022-10-19T12:31:10.058Z,0.30
2022-10-19T12:34:03.690Z,0.22
2022-10-19T12:36:37.612Z,0.22
2022-10-19T12:39:05.605Z,0.75
2022-10-19T12:41:39.951Z,1.60
2022-10-19T12:44:52.635Z,0.47
2022-10-19T12:47:25.339Z,0.20
2022-10-19T12:49:55.899Z,0.50
2022-10-19T12:52:45.515Z,0.20
2022-10-19T12:55:16.709Z,0.10
2022-10-19T12:57:48.559Z,0.20
2022-10-19T13:00:21.765Z,0.55
2022-10-19T13:03:15.553Z,0.50
2022-10-19T13:05:57.534Z,0.45
2022-10-19T13:08:40.096Z,0.37
2022-10-19T13:11:17.584Z,0.70
2022-10-19T13:13:56.946Z,0.50
2022-10-19T13:16:37.012Z,0.30
2022-10-19T13:19:31.665Z,0.20
2022-10-19T13:22:02.610Z,0.52
2022-10-19T13:24:36.152Z,0.40
2022-10-19T13:27:07.181Z,0.20
2022-10-19T13:29:39.551Z,0.30
2022-10-19T13:32:35.913Z,0.40
2022-10-19T13:35:24.089Z,0.43
2022-10-19T13:38:18.513Z,0.20
2022-10-19T13:40:49.620Z,0.47
2022-10-19T13:43:38.946Z,0.30
2022-10-19T13:46:42.659Z,0.30
2022-10-19T13:49:48.301Z,0.30
2022-10-19T13:52:48.792Z,0.60
2022-10-19T13:55:28.850Z,0.82
2022-10-19T13:58:15.305Z,0.93
2022-10-19T14:01:12.234Z,1.23
2022-10-19T14:03:52.721Z,0.32
2022-10-19T14:06:28.491Z,0.17
2022-10-19T14:09:28.934Z,0.32
2022-10-19T14:12:22.674Z,0.20
2022-10-19T14:14:54.137Z,1.00
2022-10-19T14:17:25.640Z,0.40
2022-10-19T14:19:57.273Z,0.65
2022-10-19T14:22:30.290Z,0.37
2022-10-19T14:25:24.322Z,0.80
2022-10-19T14:28:17.411Z,1.02
2022-10-19T14:30:55.551Z,1.23
2022-10-19T14:33:25.726Z,0.60
2022-10-19T14:35:54.889Z,0.20
2022-10-19T14:38:45.711Z,0.30
2022-10-19T14:41:28.887Z,0.45
2022-10-19T14:43:57.912Z,0.90
2022-10-19T14:46:34.314Z,0.35
2022-10-19T14:49:04.854Z,0.40
2022-10-19T14:51:56.240Z,0.52
2022-10-19T14:54:45.246Z,0.95
2022-10-19T14:57:17.975Z,0.40
2022-10-19T14:59:48.797Z,0.50
2022-10-19T15:02:23.680Z,0.77
2022-10-19T15:04:53.703Z,1.15
2022-10-19T15:07:36.321Z,0.60
2022-10-19T15:10:07.864Z,0.47
2022-10-19T15:12:39.390Z,0.28
2022-10-19T15:15:15.889Z,0.52
2022-10-19T15:17:57.231Z,0.90
2022-10-19T15:20:31.364Z,0.35
2022-10-19T15:23:02.871Z,0.80
2022-10-19T15:25:34.580Z,0.60
2022-10-19T15:28:47.383Z,1.85
2022-10-19T15:31:21.491Z,0.43
2022-10-19T15:33:58.269Z,0.73
2022-10-19T15:39:06.204Z,0.50
2022-10-19T15:41:46.271Z,0.82
2022-10-19T15:44:40.703Z,1.40
2022-10-19T15:47:20.700Z,0.85
2022-10-19T15:49:56.613Z,1.35
2022-10-19T15:52:30.034Z,0.30
2022-10-19T15:55:00.071Z,0.90
2022-10-19T15:57:34.241Z,0.40
2022-10-19T16:00:12.900Z,0.43
2022-10-19T16:02:41.459Z,0.43
2022-10-19T16:05:09.672Z,0.30
2022-10-19T16:07:39.681Z,0.57
2022-10-19T16:10:11.916Z,0.60
2022-10-19T16:12:39.841Z,0.37
2022-10-19T16:15:09.586Z,1.08
2022-10-19T16:17:37.749Z,0.55
2022-10-19T16:20:06.682Z,0.60
2022-10-19T16:22:35.421Z,0.52
2022-10-19T16:25:04.111Z,0.40
2022-10-19T16:27:32.236Z,0.45
2022-10-19T16:30:01.180Z,0.85
2022-10-19T16:32:29.434Z,0.45
2022-10-19T16:34:57.761Z,0.30
2022-10-19T16:37:26.012Z,0.20
2022-10-19T16:39:54.065Z,1.48
2022-10-19T16:42:24.578Z,0.90
2022-10-19T16:44:55.792Z,0.30
2022-10-19T16:47:23.842Z,0.40
2022-10-19T16:50:01.939Z,0.30
2022-10-19T16:52:33.314Z,0.40
2022-10-19T16:55:02.607Z,0.50
2022-10-19T16:57:30.892Z,0.60
2022-10-19T16:59:58.961Z,0.40
2022-10-19T17:02:26.948Z,0.65
2022-10-19T17:04:55.231Z,0.50
2022-10-19T17:07:23.681Z,0.60
2022-10-19T17:09:54.661Z,0.50
2022-10-19T17:12:25.233Z,0.82
2022-10-19T17:14:59.486Z,0.57
2022-10-19T17:17:35.890Z,0.55
2022-10-19T17:20:05.679Z,0.45
2022-10-19T17:22:34.629Z,0.57
2022-10-19T17:25:04.378Z,1.00
2022-10-19T17:27:32.451Z,0.98
2022-10-19T17:30:01.097Z,0.82
2022-10-19T17:32:29.226Z,1.02
2022-10-19T17:34:57.317Z,0.50
2022-10-19T17:37:25.815Z,0.40
2022-10-19T17:39:53.799Z,0.35
2022-10-19T17:42:21.899Z,0.70
2022-10-19T17:44:50.277Z,0.93
2022-10-19T17:47:18.530Z,0.50
2022-10-19T17:49:46.504Z,0.85
2022-10-19T17:52:16.245Z,0.37
2022-10-19T17:54:54.560Z,0.85
2022-10-19T17:57:33.213Z,0.85
2022-10-19T18:00:01.918Z,0.80
2022-10-19T18:02:41.037Z,0.73
2022-10-19T18:05:11.203Z,0.52
2022-10-19T18:07:42.986Z,0.40
2022-10-19T18:10:12.660Z,0.62
2022-10-19T18:12:40.847Z,1.80
2022-10-19T18:15:09.472Z,1.25
2022-10-19T18:17:38.288Z,1.05
2022-10-19T18:20:07.220Z,0.95
2022-10-19T18:22:35.687Z,0.80
2022-10-19T18:25:04.713Z,1.02
2022-10-19T18:27:33.092Z,1.02
2022-10-19T18:30:01.413Z,0.40
2022-10-19T18:32:32.046Z,2.25
2022-10-19T18:35:00.865Z,1.87
2022-10-19T18:37:29.208Z,2.25
2022-10-19T18:39:57.820Z,1.85
2022-10-19T18:42:25.960Z,3.62
2022-10-19T18:44:54.249Z,0.80
2022-10-19T18:47:22.704Z,1.45
2022-10-19T18:49:50.698Z,1.23
2022-10-19T18:52:19.922Z,0.73
2022-10-19T18:54:48.437Z,0.40
2022-10-19T18:57:16.650Z,1.15
2022-10-19T18:59:44.608Z,0.32
2022-10-19T19:02:22.174Z,0.50
2022-10-19T19:04:50.898Z,8.48
2022-10-19T19:07:19.750Z,22.87
2022-10-19T19:09:51.679Z,24.48
2022-10-19T19:12:21.938Z,5.12
2022-10-19T19:14:50.100Z,1.67
2022-10-19T19:17:18.279Z,0.70
2022-10-19T19:19:47.090Z,1.37
2022-10-19T19:22:15.101Z,0.80
2022-10-19T19:24:45.911Z,0.50
2022-10-19T19:27:14.291Z,0.88
2022-10-19T19:29:43.050Z,0.98
2022-10-19T19:32:11.098Z,0.50
2022-10-19T19:34:39.708Z,0.52
2022-10-19T19:37:10.454Z,0.50
2022-10-19T19:39:40.145Z,1.08
2022-10-19T19:42:08.176Z,0.60
2022-10-19T19:44:36.386Z,0.73
2022-10-19T19:47:04.900Z,0.40
2022-10-19T19:49:32.773Z,0.32
2022-10-19T19:52:00.956Z,0.40
2022-10-19T19:54:29.219Z,0.95
2022-10-19T19:56:57.580Z,0.40
2022-10-19T19:59:25.851Z,0.37
2022-10-19T20:01:54.371Z,0.85
2022-10-19T20:04:22.809Z,0.95
2022-10-19T20:06:50.992Z,1.33
2022-10-19T20:09:18.969Z,0.50
2022-10-19T20:11:47.360Z,0.73
2022-10-19T20:14:15.339Z,0.40
2022-10-19T20:16:43.382Z,4.03
2022-10-19T20:19:13.670Z,2.40
2022-10-19T20:21:41.950Z,0.52
2022-10-19T20:24:10.193Z,0.40
2022-10-19T20:26:38.801Z,0.75
2022-10-19T20:29:07.113Z,0.85
2022-10-19T20:31:39.736Z,11.98
2022-10-19T20:34:10.903Z,5.40
2022-10-19T20:36:39.739Z,1.67
2022-10-19T20:39:07.649Z,0.50
2022-10-19T20:41:36.209Z,0.47
2022-10-19T20:44:04.252Z,0.80
2022-10-19T20:46:32.403Z,0.75
2022-10-19T20:49:02.000Z,0.30
2022-10-19T20:51:32.923Z,0.40
2022-10-19T20:54:03.752Z,0.40
2022-10-19T20:56:34.649Z,0.77
2022-10-19T20:59:08.449Z,0.40
2022-10-19T21:01:38.228Z,0.40
2022-10-19T21:04:08.852Z,1.23
2022-10-19T21:06:45.758Z,0.50
2022-10-19T21:09:17.964Z,0.80
2022-10-19T21:11:47.462Z,1.37
2022-10-19T21:14:25.241Z,1.67
2022-10-19T21:16:59.949Z,0.77
2022-10-19T21:19:29.548Z,0.50
2022-10-19T21:22:02.171Z,0.82
2022-10-19T21:24:32.992Z,0.60
2022-10-19T21:27:02.670Z,0.93
2022-10-19T21:29:31.272Z,1.15
2022-10-19T21:31:59.379Z,1.02
2022-10-19T21:34:28.769Z,1.37
2022-10-19T21:36:57.557Z,2.85
2022-10-19T21:39:25.419Z,1.02
2022-10-19T21:41:53.389Z,1.17
2022-10-19T21:44:23.305Z,1.02
2022-10-19T21:46:51.188Z,0.40
2022-10-19T21:49:19.338Z,0.50
2022-10-19T21:51:51.904Z,0.77
2022-10-19T21:54:22.283Z,0.40
2022-10-19T21:56:50.620Z,0.40
2022-10-19T21:59:18.496Z,0.50
2022-10-19T22:01:46.389Z,0.95
2022-10-19T22:04:16.438Z,0.40
2022-10-19T22:06:44.468Z,0.50
2022-10-19T22:09:18.039Z,0.60
2022-10-19T22:11:46.710Z,0.40
2022-10-19T22:14:15.478Z,0.60
2022-10-19T22:16:43.740Z,0.45
2022-10-19T22:19:12.107Z,0.50
2022-10-19T22:21:40.401Z,0.40
2022-10-19T22:24:12.253Z,0.85
2022-10-19T22:26:44.099Z,1.15
2022-10-19T22:29:11.897Z,1.48
2022-10-19T22:31:40.280Z,0.70
2022-10-19T22:34:11.470Z,1.05
2022-10-19T22:36:39.311Z,1.30
2022-10-19T22:39:08.079Z,0.60
2022-10-19T22:42:32.362Z,0.40
2022-10-19T22:45:18.897Z,0.40
2022-10-19T22:47:47.138Z,0.40
2022-10-19T22:50:15.100Z,0.60
2022-10-19T22:52:43.039Z,1.33
2022-10-19T22:55:11.396Z,0.98
2022-10-19T22:57:39.306Z,0.73
2022-10-19T23:00:07.909Z,1.48
2022-10-19T23:02:36.347Z,0.30
2022-10-19T23:05:04.589Z,0.40
2022-10-19T23:07:33.741Z,0.40
2022-10-19T23:10:02.268Z,0.30
2022-10-19T23:12:30.322Z,0.30
2022-10-19T23:14:58.201Z,0.77
2022-10-19T23:17:26.509Z,1.37
2022-10-19T23:19:54.450Z,1.25
2022-10-19T23:22:22.490Z,3.03
2022-10-19T23:24:50.832Z,0.50
2022-10-19T23:28:15.029Z,0.85
2022-10-19T23:30:52.594Z,0.30
2022-10-19T23:33:20.481Z,0.40
2022-10-19T23:35:48.300Z,0.40
2022-10-19T23:38:16.499Z,0.40
2022-10-19T23:40:45.244Z,0.40
2022-10-19T23:43:13.127Z,0.40
2022-10-19T23:45:41.335Z,0.40
2022-10-19T23:48:09.320Z,0.60
2022-10-19T23:50:37.137Z,0.50
2022-10-19T23:53:05.361Z,1.05
2022-10-19T23:55:33.370Z,0.52
2022-10-19T23:58:01.179Z,0.60
